Time;durP1;ratioP1;P1;durP2;ratioP2;P2;SDS_P1;SDS_P2;PMS_P1;PMS_P2;Temp;Humidity;BMP_temperature;BMP_pressure;BME280_temperature;BME280_humidity;BME280_pressure;Samples;Min_cycle;Max_cycle;Signal;HPM_P1;HPM_P2
2022/01/25 00:08:49;;;;;;;42.00;21.70;;;5.40;99.90;;;;;;5116768;28;20052;-71
2022/01/25 00:29:58;;;;;;;37.60;20.13;;;5.60;99.90;;;;;;5115597;28;20050;-71
2022/01/25 00:32:24;;;;;;;37.45;19.17;;;5.20;99.90;;;;;;5116109;28;20047;-71
2022/01/25 00:34:50;;;;;;;41.38;21.27;;;5.40;99.90;;;;;;5116125;28;20046;-71
2022/01/25 00:37:16;;;;;;;35.58;19.58;;;5.60;99.90;;;;;;5115904;28;20040;-71
2022/01/25 00:39:42;;;;;;;38.05;20.63;;;5.30;99.90;;;;;;5116390;28;20498;-71
2022/01/25 00:42:09;;;;;;;39.10;20.17;;;5.70;99.90;;;;;;5116281;28;20036;-71
2022/01/25 00:44:38;;;;;;;36.38;20.85;;;5.20;99.90;;;;;;5115928;28;20089;-71
2022/01/25 00:47:06;;;;;;;39.80;20.00;;;6.60;99.90;;;;;;5114417;28;20057;-71
2022/01/25 00:49:39;;;;;;;35.25;19.08;;;5.30;99.90;;;;;;5115843;28;20052;-71
2022/01/25 00:54:57;;;;;;;40.45;20.55;;;5.20;99.90;;;;;;5083617;28;20085;-71
2022/01/25 00:57:25;;;;;;;35.97;19.27;;;5.60;99.90;;;;;;5115562;28;20471;-71
2022/01/25 00:59:50;;;;;;;38.45;19.60;;;5.50;99.90;;;;;;5115070;28;20055;-71
2022/01/25 01:02:17;;;;;;;36.95;19.70;;;5.50;99.90;;;;;;5114325;28;20040;-71
2022/01/25 01:04:43;;;;;;;40.40;20.27;;;6.20;99.90;;;;;;5114529;28;20126;-71
2022/01/25 01:07:13;;;;;;;36.28;19.15;;;5.50;99.90;;;;;;5115561;28;20125;-71
2022/01/25 01:09:41;;;;;;;34.78;18.88;;;5.70;99.90;;;;;;5114378;28;20118;-71
2022/01/25 01:13:17;;;;;;;34.05;18.02;;;5.50;99.90;;;;;;5114127;28;20043;-72
2022/01/25 01:15:07;;;;;;;40.95;19.38;;;5.30;99.90;;;;;;5101137;28;20497;-71
2022/01/25 01:28:49;;;;;;;39.25;20.63;;;5.20;99.90;;;;;;5114166;28;20089;-71
2022/01/25 01:29:10;;;;;;;34.10;18.63;;;5.60;99.90;;;;;;5115094;28;20052;-71
2022/01/25 01:31:46;;;;;;;37.60;19.63;;;6.00;99.90;;;;;;5111613;28;20137;-71
2022/01/25 01:34:40;;;;;;;;;;;5.90;99.90;;;;;;5115824;28;20097;-71
2022/01/25 01:37:28;;;;;;;37.85;20.08;;;5.20;99.90;;;;;;5114381;28;19920;-71
2022/01/25 01:45:26;;;;;;;37.83;19.55;;;5.50;99.90;;;;;;5114661;28;20055;-71
2022/01/25 01:47:52;;;;;;;35.33;19.98;;;5.20;99.90;;;;;;5113977;28;20043;-71
2022/01/25 01:50:32;;;;;;;38.70;20.23;;;5.80;99.90;;;;;;5114739;28;20391;-71
2022/01/25 01:52:58;;;;;;;43.40;22.00;;;5.20;99.90;;;;;;5114572;28;20072;-71
2022/01/25 01:55:26;;;;;;;39.65;20.38;;;6.10;99.90;;;;;;5114503;28;20388;-71
2022/01/25 01:57:53;;;;;;;37.60;20.58;;;5.20;99.90;;;;;;5113518;28;20047;-71
2022/01/25 02:00:23;;;;;;;39.45;21.13;;;5.40;99.90;;;;;;5112791;28;20048;-71
2022/01/25 02:02:49;;;;;;;38.05;19.83;;;5.90;99.90;;;;;;5114560;28;20090;-70
2022/01/25 02:05:15;;;;;;;38.75;21.15;;;5.30;99.90;;;;;;5114259;28;20035;-70
2022/01/25 02:07:41;;;;;;;37.88;19.27;;;5.50;99.90;;;;;;5114152;28;20044;-71
2022/01/25 02:10:07;;;;;;;40.38;21.65;;;5.40;99.90;;;;;;5114347;28;20044;-70
2022/01/25 02:12:34;;;;;;;41.17;20.77;;;5.20;99.90;;;;;;5113501;28;20053;-70
2022/01/25 02:15:02;;;;;;;40.90;20.55;;;5.40;99.90;;;;;;5095822;28;20404;-71
2022/01/25 02:22:57;;;;;;;39.60;20.75;;;5.60;99.90;;;;;;5113196;28;20059;-71
2022/01/25 02:25:24;;;;;;;41.35;21.08;;;5.20;99.90;;;;;;5113995;28;20066;-71
2022/01/25 02:27:50;;;;;;;40.03;20.80;;;5.60;99.90;;;;;;5096286;28;20412;-71
2022/01/25 02:30:16;;;;;;;40.17;20.85;;;5.90;99.90;;;;;;5112521;28;20132;-71
2022/01/25 02:32:42;;;;;;;43.80;21.67;;;5.80;99.90;;;;;;5113824;28;20050;-71
2022/01/25 02:35:09;;;;;;;40.38;20.98;;;5.40;99.90;;;;;;5114003;28;20467;-71
2022/01/25 02:37:35;;;;;;;39.58;20.90;;;5.90;99.90;;;;;;5113837;28;20055;-70
2022/01/25 02:40:02;;;;;;;40.95;21.27;;;5.40;99.90;;;;;;5112785;28;20474;-71
2022/01/25 02:42:28;;;;;;;41.47;20.95;;;5.20;99.90;;;;;;5114360;28;20372;-70
2022/01/25 02:44:53;;;;;;;41.90;21.70;;;5.30;99.90;;;;;;5113658;28;20092;-71
2022/01/25 02:50:05;;;;;;;41.08;21.50;;;5.10;99.90;;;;;;5113820;28;20048;-70
2022/01/25 02:52:31;;;;;;;41.45;22.50;;;5.10;99.90;;;;;;5112856;28;20043;-72
2022/01/25 02:54:57;;;;;;;40.00;19.67;;;5.10;99.90;;;;;;5112268;28;20469;-70
2022/01/25 02:57:24;;;;;;;40.03;20.88;;;5.10;99.90;;;;;;5113445;28;20047;-71
2022/01/25 02:59:50;;;;;;;40.70;21.67;;;4.70;99.90;;;;;;5112123;28;20052;-71
2022/01/25 03:02:17;;;;;;;39.05;20.73;;;5.60;99.90;;;;;;5113665;28;20047;-70
2022/01/25 03:04:42;;;;;;;36.83;20.77;;;5.40;99.90;;;;;;5113509;28;20066;-70
2022/01/25 03:07:09;;;;;;;42.08;22.10;;;5.60;99.90;;;;;;5112604;28;20048;-70
2022/01/25 03:09:37;;;;;;;43.00;21.92;;;5.30;99.90;;;;;;5113570;28;20055;-70
2022/01/25 03:12:06;;;;;;;41.33;21.67;;;5.90;99.90;;;;;;5113465;28;20085;-71
2022/01/25 03:14:34;;;;;;;37.60;20.67;;;5.10;99.90;;;;;;5113838;28;20069;-70
2022/01/25 03:22:04;;;;;;;44.72;21.88;;;4.90;99.90;;;;;;5113639;28;20051;-71
2022/01/25 03:24:30;;;;;;;42.47;21.25;;;5.90;99.90;;;;;;5112418;28;20100;-71
2022/01/25 03:26:56;;;;;;;40.15;20.98;;;6.20;99.90;;;;;;5114065;28;20096;-71
2022/01/25 03:29:22;;;;;;;40.92;22.23;;;5.20;99.90;;;;;;5117037;28;20127;-71
2022/01/25 03:31:48;;;;;;;46.33;22.73;;;5.70;99.90;;;;;;5116999;28;20039;-71
2022/01/25 03:34:13;;;;;;;43.70;22.08;;;5.80;99.90;;;;;;5117476;28;20089;-70
2022/01/25 03:36:39;;;;;;;43.15;22.40;;;5.00;99.90;;;;;;5117369;28;20494;-70
2022/01/25 03:39:06;;;;;;;43.25;22.05;;;5.00;99.90;;;;;;5117331;28;20118;-70
2022/01/25 03:41:33;;;;;;;42.67;22.05;;;5.40;99.90;;;;;;5117151;28;20051;-70
2022/01/25 03:43:59;;;;;;;43.90;22.13;;;5.10;99.90;;;;;;5117156;28;20055;-70
2022/01/25 03:46:41;;;;;;;40.85;22.48;;;5.10;99.90;;;;;;5116824;28;20051;-70
2022/01/25 03:51:51;;;;;;;42.03;21.60;;;5.50;99.90;;;;;;5117128;28;20051;-71
2022/01/25 03:54:17;;;;;;;44.97;22.65;;;4.80;99.90;;;;;;5115785;28;20043;-71
2022/01/25 03:56:43;;;;;;;38.92;21.08;;;5.80;99.90;;;;;;5116795;28;20127;-71
2022/01/25 03:59:09;;;;;;;41.50;22.27;;;5.20;99.90;;;;;;5116973;28;20101;-71
2022/01/25 04:01:36;;;;;;;41.30;21.05;;;4.80;99.90;;;;;;5116056;28;20047;-71
2022/01/25 04:04:07;;;;;;;46.92;22.65;;;4.80;99.90;;;;;;5116784;28;20058;-70
2022/01/25 04:06:35;;;;;;;39.95;21.02;;;4.80;99.90;;;;;;5116491;28;20130;-71
2022/01/25 04:09:02;;;;;;;39.42;21.48;;;5.30;99.90;;;;;;5116415;28;20077;-71
2022/01/25 04:11:28;;;;;;;45.33;21.95;;;5.20;99.90;;;;;;5116504;28;20056;-71
2022/01/25 04:13:57;;;;;;;44.47;22.92;;;5.50;99.90;;;;;;5116575;28;20051;-71
2022/01/25 04:16:30;;;;;;;41.92;21.70;;;5.20;99.90;;;;;;5116592;28;20039;-71
2022/01/25 04:21:45;;;;;;;42.22;22.40;;;5.30;99.90;;;;;;5115157;28;20097;-71
2022/01/25 04:26:58;;;;;;;45.65;22.33;;;4.80;99.90;;;;;;5116439;28;20098;-70
2022/01/25 04:29:24;;;;;;;44.58;23.35;;;4.90;99.90;;;;;;5115945;28;20101;-70
2022/01/25 04:31:50;;;;;;;41.65;22.10;;;5.40;99.90;;;;;;5115610;28;20059;-71
2022/01/25 04:50:19;;;;;;;45.53;23.65;;;4.80;99.90;;;;;;5116149;28;20062;-71
2022/01/25 04:52:55;;;;;;;44.65;23.65;;;4.90;99.90;;;;;;5115985;28;20054;-71
2022/01/25 04:55:32;;;;;;;46.88;23.20;;;5.20;99.90;;;;;;5099252;28;20471;-71
2022/01/25 04:58:05;;;;;;;42.60;21.80;;;4.70;99.90;;;;;;5115936;28;20051;-70
2022/01/25 05:00:32;;;;;;;44.38;22.92;;;4.80;99.90;;;;;;5113967;28;20077;-71
2022/01/25 05:03:11;;;;;;;47.60;23.08;;;4.90;99.90;;;;;;5115421;27;20493;-70
2022/01/25 05:05:54;;;;;;;44.55;23.15;;;5.10;99.90;;;;;;5115088;28;20523;-70
2022/01/25 05:11:22;;;;;;;48.30;23.08;;;5.30;99.90;;;;;;5115474;28;20044;-70
2022/01/25 05:16:32;;;;;;;45.13;24.05;;;4.70;99.90;;;;;;5115541;28;20048;-70
2022/01/25 05:24:19;;;;;;;46.90;23.92;;;5.30;99.90;;;;;;5114966;28;20051;-71
2022/01/25 05:26:45;;;;;;;41.53;22.25;;;4.80;99.90;;;;;;5113533;28;20043;-70
2022/01/25 05:29:11;;;;;;;43.92;24.00;;;5.10;99.90;;;;;;5115153;28;20548;-71
2022/01/25 05:31:37;;;;;;;43.28;23.27;;;5.40;99.90;;;;;;5112985;28;20047;-71
2022/01/25 05:34:03;;;;;;;43.78;22.05;;;5.70;99.90;;;;;;5115349;28;20070;-70
2022/01/25 05:36:29;;;;;;;45.92;22.85;;;5.20;99.90;;;;;;5113765;28;20136;-71
2022/01/25 05:39:01;;;;;;;43.22;21.98;;;4.70;99.90;;;;;;5114551;28;20051;-71
2022/01/25 05:41:30;;;;;;;45.75;23.88;;;5.00;99.90;;;;;;5114859;28;20121;-71
2022/01/25 05:46:48;;;;;;;46.17;23.75;;;5.20;99.90;;;;;;5114727;28;20526;-71
2022/01/25 05:49:14;;;;;;;44.38;22.40;;;4.60;99.90;;;;;;5114409;28;20055;-70
2022/01/25 05:51:40;;;;;;;45.17;23.40;;;5.00;99.90;;;;;;5114200;28;20069;-70
2022/01/25 05:54:06;;;;;;;49.22;25.50;;;5.00;99.90;;;;;;5114759;28;20086;-70
2022/01/25 05:56:32;;;;;;;46.10;23.80;;;4.80;99.90;;;;;;5113583;28;20051;-70
2022/01/25 05:58:57;;;;;;;42.97;23.15;;;5.00;99.90;;;;;;5113460;28;20070;-70
2022/01/25 06:01:23;;;;;;;43.17;21.98;;;4.70;99.90;;;;;;5112504;28;20051;-71
2022/01/25 06:03:49;;;;;;;45.88;24.83;;;5.30;99.90;;;;;;5114417;28;20176;-71
2022/01/25 06:06:14;;;;;;;43.00;22.77;;;4.70;99.90;;;;;;5112823;28;20491;-71
2022/01/25 06:08:40;;;;;;;48.22;24.90;;;4.70;99.90;;;;;;5114382;28;20047;-70
2022/01/25 06:11:07;;;;;;;45.70;24.20;;;5.20;99.90;;;;;;5114402;28;20121;-71
2022/01/25 06:13:33;;;;;;;46.17;24.55;;;4.70;99.90;;;;;;5114169;28;20055;-71
2022/01/25 06:15:59;;;;;;;44.67;23.33;;;5.30;99.90;;;;;;5112945;28;20040;-71
2022/01/25 06:18:24;;;;;;;46.28;24.50;;;4.60;99.90;;;;;;5113792;28;20047;-70
2022/01/25 06:20:50;;;;;;;46.67;24.08;;;4.60;99.90;;;;;;5096181;28;20043;-70
2022/01/25 06:23:16;;;;;;;43.92;23.10;;;5.10;99.90;;;;;;5114047;28;20040;-70
2022/01/25 06:25:41;;;;;;;48.83;23.83;;;5.70;99.90;;;;;;5113992;28;20044;-70
2022/01/25 06:28:07;;;;;;;49.10;24.77;;;5.10;99.90;;;;;;5113978;28;20097;-70
2022/01/25 06:30:33;;;;;;;43.88;23.42;;;4.80;99.90;;;;;;5113443;28;20044;-71
2022/01/25 06:32:59;;;;;;;48.05;25.17;;;5.10;99.90;;;;;;5113800;28;20039;-70
2022/01/25 06:35:30;;;;;;;47.55;23.50;;;5.20;99.90;;;;;;5112641;28;20079;-70
2022/01/25 06:37:56;;;;;;;49.17;24.55;;;4.80;99.90;;;;;;5113936;28;20047;-71
2022/01/25 06:40:24;;;;;;;43.35;23.52;;;5.00;99.90;;;;;;5113814;28;20399;-70
2022/01/25 06:42:49;;;;;;;44.20;22.67;;;5.00;99.90;;;;;;5113799;28;20122;-70
2022/01/25 06:45:18;;;;;;;44.95;23.42;;;5.60;99.90;;;;;;5113912;28;20126;-70
2022/01/25 06:47:45;;;;;;;48.53;24.42;;;5.30;99.90;;;;;;5113580;28;20457;-70
2022/01/25 06:50:13;;;;;;;44.85;23.55;;;5.30;99.90;;;;;;5114119;28;20044;-70
2022/01/25 06:52:41;;;;;;;44.80;23.52;;;5.50;99.90;;;;;;5113727;28;20044;-70
2022/01/25 06:55:09;;;;;;;46.17;24.58;;;4.80;99.90;;;;;;5112824;28;20113;-71
2022/01/25 06:57:35;;;;;;;42.38;22.42;;;4.80;99.90;;;;;;5113543;28;20044;-71
2022/01/25 07:00:03;;;;;;;44.05;23.92;;;4.90;99.90;;;;;;5113133;28;20113;-71
2022/01/25 07:02:29;;;;;;;48.63;24.23;;;4.80;99.90;;;;;;5116771;28;20051;-71
2022/01/25 07:04:54;;;;;;;45.47;23.60;;;5.30;99.90;;;;;;5099801;28;20077;-71
2022/01/25 07:07:20;;;;;;;46.42;22.80;;;5.30;99.90;;;;;;5117754;28;20047;-71
2022/01/25 07:09:46;;;;;;;46.38;23.77;;;5.10;99.90;;;;;;5117899;28;20441;-71
2022/01/25 07:12:12;;;;;;;45.78;24.10;;;5.60;99.90;;;;;;5117937;28;20039;-71
2022/01/25 07:14:37;;;;;;;45.60;22.98;;;5.10;99.90;;;;;;5117819;28;20039;-71
2022/01/25 07:17:03;;;;;;;47.95;23.73;;;5.30;99.90;;;;;;5117306;28;20049;-71
2022/01/25 07:19:29;;;;;;;43.83;22.40;;;4.80;99.90;;;;;;5117382;28;20348;-71
2022/01/25 07:21:55;;;;;;;44.60;23.52;;;4.60;99.90;;;;;;5117958;28;20046;-71
2022/01/25 07:24:21;;;;;;;45.70;21.95;;;4.70;99.90;;;;;;5117013;28;20494;-71
2022/01/25 07:26:47;;;;;;;45.72;23.50;;;5.00;99.90;;;;;;5117201;28;20046;-70
2022/01/25 07:29:13;;;;;;;47.47;23.73;;;5.40;99.90;;;;;;5117536;28;20047;-71
2022/01/25 07:31:39;;;;;;;48.47;24.08;;;5.10;99.90;;;;;;5116261;28;20048;-71
2022/01/25 07:34:05;;;;;;;45.83;22.05;;;4.80;99.90;;;;;;5116522;28;20039;-71
2022/01/25 07:36:31;;;;;;;42.17;21.33;;;5.10;99.90;;;;;;5117288;28;20477;-71
2022/01/25 07:38:56;;;;;;;43.28;22.55;;;4.80;99.90;;;;;;5115973;28;20043;-71
2022/01/25 07:41:23;;;;;;;41.83;22.00;;;4.90;99.90;;;;;;5116971;28;20043;-71
2022/01/25 07:43:49;;;;;;;45.95;21.50;;;5.20;99.90;;;;;;5117174;28;20043;-71
2022/01/25 07:46:16;;;;;;;42.60;22.02;;;5.00;99.90;;;;;;5116645;28;20571;-71
2022/01/25 07:48:43;;;;;;;45.78;21.60;;;4.90;99.90;;;;;;5117045;28;20055;-71
2022/01/25 07:51:08;;;;;;;44.03;22.30;;;5.40;99.90;;;;;;5117033;28;20049;-71
2022/01/25 07:53:34;;;;;;;44.53;23.13;;;4.80;99.90;;;;;;5115624;28;20039;-71
2022/01/25 07:56:00;;;;;;;47.00;23.10;;;5.00;99.90;;;;;;5115906;28;20056;-71
2022/01/25 07:58:25;;;;;;;44.47;22.08;;;5.70;99.90;;;;;;5115754;28;20428;-71
2022/01/25 08:00:51;;;;;;;44.78;22.73;;;5.30;99.90;;;;;;5115539;28;20122;-71
2022/01/25 08:03:18;;;;;;;48.35;22.58;;;5.40;99.90;;;;;;5115749;28;20040;-71
2022/01/25 08:05:45;;;;;;;45.28;22.55;;;4.90;99.90;;;;;;5116812;28;20390;-71
2022/01/25 08:08:12;;;;;;;43.55;22.35;;;4.80;99.90;;;;;;5115711;28;20051;-71
2022/01/25 08:10:37;;;;;;;46.33;23.30;;;4.80;99.90;;;;;;5116497;28;20055;-71
2022/01/25 08:13:03;;;;;;;45.42;21.88;;;4.70;99.90;;;;;;5115890;28;20048;-71
2022/01/25 08:15:29;;;;;;;44.00;22.08;;;4.70;99.90;;;;;;5116458;28;20105;-71
2022/01/25 08:17:55;;;;;;;47.15;23.60;;;4.70;99.90;;;;;;5116498;28;20126;-71
2022/01/25 08:20:21;;;;;;;47.45;22.65;;;5.20;99.90;;;;;;5098316;28;20084;-71
2022/01/25 08:22:47;;;;;;;44.63;21.85;;;4.80;99.90;;;;;;5116599;28;20055;-71
2022/01/25 08:25:13;;;;;;;43.83;22.73;;;5.20;99.90;;;;;;5116567;28;20050;-72
2022/01/25 08:27:38;;;;;;;42.35;21.88;;;5.10;99.90;;;;;;5116415;28;20101;-71
2022/01/25 08:30:05;;;;;;;44.38;22.17;;;5.10;99.90;;;;;;5115428;28;20051;-71
2022/01/25 08:32:31;;;;;;;45.28;23.67;;;4.80;99.90;;;;;;5116342;28;20053;-69
2022/01/25 08:34:58;;;;;;;45.58;22.27;;;4.90;99.90;;;;;;5116503;28;20441;-69
2022/01/25 08:37:24;;;;;;;45.67;23.35;;;5.00;99.90;;;;;;5098116;28;20055;-68
2022/01/25 08:39:50;;;;;;;44.08;21.20;;;5.20;99.90;;;;;;5116041;28;20059;-68
2022/01/25 08:42:15;;;;;;;44.75;22.45;;;5.00;99.90;;;;;;5114968;28;20048;-69
2022/01/25 08:44:41;;;;;;;41.55;21.15;;;5.10;99.90;;;;;;5115730;28;20521;-68
2022/01/25 08:47:08;;;;;;;43.20;22.08;;;5.40;99.90;;;;;;5115851;28;20391;-68
2022/01/25 08:49:34;;;;;;;43.72;22.35;;;5.70;99.90;;;;;;5115955;28;20403;-69
2022/01/25 08:52:00;;;;;;;40.03;20.55;;;4.90;99.90;;;;;;5116006;28;20104;-70
2022/01/25 08:54:26;;;;;;;42.22;21.40;;;5.20;99.90;;;;;;5115837;28;20122;-69
2022/01/25 08:56:55;;;;;;;41.83;21.55;;;5.20;99.90;;;;;;5113433;28;20047;-69
2022/01/25 08:59:20;;;;;;;46.03;22.90;;;5.10;99.90;;;;;;5115820;28;20105;-69
2022/01/25 09:01:47;;;;;;;44.55;21.33;;;5.20;99.90;;;;;;5115263;28;20047;-69
2022/01/25 09:04:12;;;;;;;44.92;21.45;;;5.50;99.90;;;;;;5115809;28;20088;-69
2022/01/25 09:06:38;;;;;;;45.90;22.95;;;5.10;99.90;;;;;;5115704;28;20079;-69
2022/01/25 09:09:07;;;;;;;43.20;21.17;;;5.30;99.90;;;;;;5113574;27;20039;-70
2022/01/25 09:11:34;;;;;;;47.13;23.10;;;5.60;99.90;;;;;;5115473;28;20502;-70
2022/01/25 09:13:59;;;;;;;43.95;21.02;;;5.00;99.90;;;;;;5116086;28;20039;-70
2022/01/25 09:16:27;;;;;;;44.53;21.38;;;5.70;99.90;;;;;;5115569;28;20426;-70
2022/01/25 09:18:53;;;;;;;43.42;21.05;;;5.50;99.90;;;;;;5119127;27;20043;-71
2022/01/25 09:21:18;;;;;;;48.72;22.23;;;5.30;99.90;;;;;;5124688;27;20041;-71
2022/01/25 09:23:44;;;;;;;45.42;22.27;;;5.10;99.90;;;;;;5125949;27;20118;-71
2022/01/25 09:26:10;;;;;;;44.10;21.65;;;5.30;99.90;;;;;;5123320;27;20425;-71
2022/01/25 09:28:36;;;;;;;43.45;21.45;;;5.00;99.90;;;;;;5125006;27;20088;-70
2022/01/25 09:31:02;;;;;;;48.08;22.77;;;5.80;99.90;;;;;;5125730;27;20126;-70
2022/01/25 09:33:28;;;;;;;42.60;21.48;;;5.50;99.90;;;;;;5121127;27;20031;-71
2022/01/25 09:35:56;;;;;;;45.28;21.42;;;5.30;99.90;;;;;;5124115;27;20496;-71
2022/01/25 09:38:22;;;;;;;40.88;19.85;;;5.10;99.90;;;;;;5124909;27;20103;-71
2022/01/25 09:40:48;;;;;;;46.67;22.33;;;5.30;99.90;;;;;;5121251;27;20061;-71
2022/01/25 09:43:15;;;;;;;42.10;21.65;;;6.00;99.90;;;;;;5124974;27;20043;-71
2022/01/25 09:45:41;;;;;;;44.47;21.60;;;5.00;99.90;;;;;;5125521;27;20470;-71
2022/01/25 09:48:08;;;;;;;47.63;23.17;;;5.00;99.90;;;;;;5105283;27;20044;-71
2022/01/25 09:50:36;;;;;;;47.53;22.63;;;5.00;99.90;;;;;;5124936;27;20039;-71
2022/01/25 09:53:04;;;;;;;44.95;22.40;;;4.90;99.90;;;;;;5124444;27;20407;-71
2022/01/25 09:55:33;;;;;;;48.28;22.60;;;5.20;99.90;;;;;;5121101;27;20043;-71
2022/01/25 09:57:59;;;;;;;45.35;23.55;;;5.00;99.90;;;;;;5124131;27;20088;-70
2022/01/25 10:00:29;;;;;;;45.05;22.02;;;4.80;99.90;;;;;;5124990;27;20039;-71
2022/01/25 10:03:27;;;;;;;46.17;22.88;;;4.90;99.90;;;;;;5121046;27;20046;-71
2022/01/25 10:05:56;;;;;;;44.88;22.67;;;5.20;99.90;;;;;;5121809;27;20459;-71
2022/01/25 10:08:26;;;;;;;43.38;21.88;;;5.10;99.90;;;;;;5125306;27;20127;-70
2022/01/25 10:11:02;;;;;;;50.72;23.13;;;4.90;99.90;;;;;;5121901;27;20076;-71
2022/01/25 10:13:50;;;;;;;47.75;23.85;;;4.90;99.90;;;;;;5123218;27;20047;-70
2022/01/25 10:16:28;;;;;;;47.55;23.58;;;5.00;99.90;;;;;;5121605;27;20035;-71
2022/01/25 10:19:00;;;;;;;47.45;23.17;;;4.90;99.90;;;;;;5121897;27;20483;-70
2022/01/25 10:21:38;;;;;;;49.83;22.67;;;5.30;99.90;;;;;;5121990;27;20047;-70
2022/01/25 10:24:10;;;;;;;49.13;23.17;;;5.20;99.90;;;;;;5123080;27;20058;-69
2022/01/25 10:26:48;;;;;;;48.15;22.30;;;5.00;99.90;;;;;;5123862;27;20053;-70
2022/01/25 10:29:20;;;;;;;49.72;24.25;;;4.90;99.90;;;;;;5121949;27;20046;-71
2022/01/25 10:31:48;;;;;;;51.55;22.63;;;4.90;99.90;;;;;;5122371;27;20490;-71
2022/01/25 10:34:22;;;;;;;43.83;22.13;;;5.10;99.90;;;;;;5122907;27;20039;-71
2022/01/25 10:36:49;;;;;;;47.70;22.60;;;4.90;99.90;;;;;;5114269;27;20035;-71
2022/01/25 10:39:45;;;;;;;49.75;24.60;;;4.80;99.90;;;;;;5123871;27;20500;-71
2022/01/25 10:42:12;;;;;;;47.22;24.02;;;4.90;99.90;;;;;;5119491;28;20105;-69
2022/01/25 10:44:51;;;;;;;51.72;24.60;;;4.90;99.90;;;;;;5109669;27;20039;-70
2022/01/25 10:47:36;;;;;;;51.38;23.75;;;5.00;99.90;;;;;;5110491;27;20112;-70
2022/01/25 10:50:11;;;;;;;52.08;24.10;;;4.90;99.90;;;;;;5107405;27;20048;-70
2022/01/25 10:52:37;;;;;;;50.03;23.55;;;4.80;99.90;;;;;;5103982;28;20092;-70
2022/01/25 10:55:06;;;;;;;46.95;23.05;;;5.00;99.90;;;;;;5105227;28;20062;-71
2022/01/25 10:57:32;;;;;;;48.25;22.27;;;4.90;99.90;;;;;;5106469;28;20062;-71
2022/01/25 11:00:00;;;;;;;46.53;22.23;;;5.20;99.90;;;;;;5110783;28;20044;-71
2022/01/25 11:02:27;;;;;;;45.35;23.00;;;4.90;99.90;;;;;;5105597;28;20048;-71
2022/01/25 11:05:06;;;;;;;49.40;24.15;;;5.10;99.90;;;;;;5109410;27;20063;-71
2022/01/25 11:07:37;;;;;;;49.53;23.42;;;5.00;99.90;;;;;;5104935;28;20085;-71
2022/01/25 11:10:04;;;;;;;47.42;22.58;;;4.80;99.90;;;;;;5105689;28;20055;-70
2022/01/25 11:12:36;;;;;;;50.10;23.10;;;5.00;99.90;;;;;;5105887;28;20039;-71
2022/01/25 11:15:03;;;;;;;52.65;24.05;;;5.20;99.90;;;;;;5108864;28;20052;-71
2022/01/25 11:17:31;;;;;;;48.67;24.02;;;5.30;99.90;;;;;;5109328;28;20078;-73
2022/01/25 11:19:58;;;;;;;49.35;23.60;;;5.10;99.90;;;;;;5106434;28;20039;-71
2022/01/25 11:22:25;;;;;;;51.25;23.42;;;5.00;99.90;;;;;;5108302;28;20058;-69
2022/01/25 11:25:03;;;;;;;52.78;23.00;;;5.30;99.90;;;;;;5108817;28;20051;-69
2022/01/25 11:27:30;;;;;;;51.83;23.45;;;5.00;99.90;;;;;;5100591;28;20074;-73
2022/01/25 11:30:00;;;;;;;46.30;21.73;;;5.00;99.90;;;;;;5110292;28;20116;-76
2022/01/25 11:32:31;;;;;;;46.25;23.63;;;5.00;99.90;;;;;;5110143;28;20081;-75
2022/01/25 11:34:59;;;;;;;47.25;22.23;;;6.00;99.90;;;;;;5108315;28;20089;-75
2022/01/25 11:37:45;;;;;;;50.65;23.25;;;5.60;99.90;;;;;;5109600;28;20042;-75
2022/01/25 11:40:35;;;;;;;50.50;24.20;;;4.90;99.90;;;;;;5106203;28;20046;-76
2022/01/25 11:43:10;;;;;;;46.95;21.70;;;5.00;99.90;;;;;;5090588;28;20056;-75
2022/01/25 11:45:40;;;;;;;49.58;21.88;;;5.00;99.90;;;;;;5128396;27;20479;-75
2022/01/25 11:48:06;;;;;;;48.85;23.05;;;5.30;99.90;;;;;;5112741;27;20051;-75
2022/01/25 11:50:41;;;;;;;48.47;23.52;;;5.70;99.90;;;;;;5092879;27;20513;-75
2022/01/25 11:53:09;;;;;;;44.80;22.30;;;5.00;99.90;;;;;;5111658;27;20047;-75
2022/01/25 11:55:52;;;;;;;48.17;23.05;;;5.80;99.90;;;;;;5114616;27;20578;-75
2022/01/25 11:58:28;;;;;;;49.47;23.10;;;5.90;99.90;;;;;;5089319;28;20100;-75
2022/01/25 12:00:59;;;;;;;45.50;22.10;;;5.00;99.90;;;;;;5110829;27;20427;-74
2022/01/25 12:03:29;;;;;;;50.10;22.83;;;5.30;99.90;;;;;;5104106;27;20140;-75
2022/01/25 12:06:08;;;;;;;44.47;22.85;;;5.00;99.90;;;;;;5091411;27;20471;-75
2022/01/25 12:11:37;;;;;;;41.47;20.95;;;5.20;99.90;;;;;;5112346;27;20051;-75
2022/01/25 12:14:20;;;;;;;51.05;23.52;;;5.10;99.90;;;;;;5108596;27;20566;-75
2022/01/25 12:17:10;;;;;;;47.17;21.77;;;5.00;99.90;;;;;;5106546;27;20066;-75
2022/01/25 12:19:48;;;;;;;49.97;23.42;;;4.70;99.90;;;;;;5112909;27;20047;-75
2022/01/25 12:22:40;;;;;;;49.13;23.00;;;4.90;99.90;;;;;;5102723;27;20051;-75
2022/01/25 12:25:46;;;;;;;52.03;22.65;;;5.00;99.90;;;;;;5107982;27;20039;-74
2022/01/25 12:28:24;;;;;;;43.85;21.92;;;5.10;99.90;;;;;;5105659;27;20046;-76
2022/01/25 12:30:50;;;;;;;49.85;23.25;;;5.00;99.90;;;;;;5102369;27;20051;-76
2022/01/25 12:33:25;;;;;;;47.75;23.23;;;5.50;99.90;;;;;;5139336;27;20094;-76
2022/01/25 12:36:00;;;;;;;49.38;23.23;;;5.10;99.90;;;;;;5101170;27;20047;-75
2022/01/25 12:38:38;;;;;;;51.13;23.33;;;5.10;99.90;;;;;;5108874;27;20044;-74
2022/01/25 12:41:17;;;;;;;54.33;24.50;;;5.00;99.90;;;;;;5109539;27;20052;-76
2022/01/25 12:43:53;;;;;;;50.03;22.73;;;5.40;99.90;;;;;;5105988;27;20085;-76
2022/01/25 12:46:25;;;;;;;48.65;22.55;;;4.90;99.90;;;;;;5106070;27;20040;-76
2022/01/25 12:48:53;;;;;;;53.70;22.08;;;5.60;99.90;;;;;;5113920;27;20055;-75
2022/01/25 12:51:27;;;;;;;51.88;23.90;;;5.20;99.90;;;;;;5105209;27;20039;-75
2022/01/25 12:53:55;;;;;;;52.10;23.45;;;5.50;99.90;;;;;;5105465;27;20051;-75
2022/01/25 12:56:25;;;;;;;48.80;23.23;;;5.20;99.90;;;;;;5106331;27;20047;-76
2022/01/25 12:59:00;;;;;;;50.58;23.73;;;5.20;99.90;;;;;;5088980;27;20049;-76
2022/01/25 13:01:27;;;;;;;50.88;23.05;;;4.90;99.90;;;;;;5108609;27;20058;-75
2022/01/25 13:04:01;;;;;;;53.53;23.77;;;5.00;99.90;;;;;;5106924;27;20035;-76
2022/01/25 13:06:31;;;;;;;44.97;22.85;;;6.00;99.90;;;;;;5139177;27;20046;-75
2022/01/25 13:09:09;;;;;;;49.63;23.08;;;4.90;99.90;;;;;;5110088;27;20502;-77
2022/01/25 13:17:03;;;;;;;53.17;24.90;;;4.90;99.90;;;;;;5109381;27;20059;-76
2022/01/25 13:19:40;;;;;;;50.15;22.92;;;4.90;99.90;;;;;;5113310;27;20643;-75
2022/01/25 13:22:14;;;;;;;45.58;22.60;;;5.00;99.90;;;;;;5107757;27;20050;-75
2022/01/25 13:24:57;;;;;;;51.35;23.40;;;5.30;99.90;;;;;;5108357;27;20058;-75
2022/01/25 13:27:28;;;;;;;44.45;22.27;;;5.20;99.90;;;;;;5092673;28;20046;-73
2022/01/25 13:32:42;;;;;;;49.67;22.33;;;5.50;99.90;;;;;;5105984;27;20051;-75
2022/01/25 13:35:34;;;;;;;48.42;22.35;;;5.00;99.90;;;;;;5103997;27;20035;-76
2022/01/25 13:38:07;;;;;;;44.45;20.58;;;5.00;99.90;;;;;;5108541;27;20066;-74
2022/01/25 13:40:55;;;;;;;49.63;22.33;;;5.00;99.90;;;;;;5110343;27;20096;-75
2022/01/25 13:46:17;;;;;;;49.33;23.52;;;4.90;99.90;;;;;;5101298;27;20054;-75
2022/01/25 13:48:44;;;;;;;53.33;22.38;;;5.10;99.90;;;;;;5104067;27;20138;-76
2022/01/25 13:51:14;;;;;;;48.50;22.55;;;4.90;99.90;;;;;;5105990;27;20059;-77
2022/01/25 13:53:41;;;;;;;42.10;22.52;;;5.00;99.90;;;;;;5105462;27;20059;-75
2022/01/25 13:56:12;;;;;;;52.55;24.35;;;4.90;99.90;;;;;;5126019;27;20039;-73
2022/01/25 13:58:40;;;;;;;50.10;23.48;;;5.10;99.90;;;;;;5123132;27;20535;-74
2022/01/25 14:01:09;;;;;;;51.85;23.05;;;5.00;99.90;;;;;;5122399;27;20043;-75
2022/01/25 14:03:50;;;;;;;52.42;22.45;;;5.20;99.90;;;;;;5124311;27;20043;-75
2022/01/25 14:06:41;;;;;;;48.35;22.17;;;5.10;99.90;;;;;;5119444;27;20038;-75
2022/01/25 14:09:14;;;;;;;47.03;22.48;;;4.90;99.90;;;;;;5123951;27;20035;-75
2022/01/25 14:22:30;;;;;;;48.30;21.15;;;5.00;99.90;;;;;;5076668;27;20046;-75
2022/01/25 14:24:56;;;;;;;48.65;21.73;;;5.40;99.90;;;;;;5109185;27;20124;-76
2022/01/25 14:27:29;;;;;;;47.63;22.98;;;5.30;99.90;;;;;;5116907;27;20071;-76
2022/01/25 14:29:56;;;;;;;47.58;23.75;;;5.30;99.90;;;;;;5117165;27;20135;-76
2022/01/25 14:32:33;;;;;;;51.25;22.33;;;5.00;99.90;;;;;;5103089;27;20086;-75
2022/01/25 14:35:03;;;;;;;45.88;22.40;;;4.90;99.90;;;;;;5116602;27;20503;-75
2022/01/25 14:37:29;;;;;;;47.70;22.05;;;5.00;99.90;;;;;;5117483;27;20081;-76
2022/01/25 14:40:10;;;;;;;52.45;24.50;;;4.90;99.90;;;;;;5114889;27;20051;-76
2022/01/25 14:42:40;;;;;;;51.55;22.65;;;5.00;99.90;;;;;;5113560;28;20167;-75
2022/01/25 14:45:12;;;;;;;50.80;22.73;;;4.90;99.90;;;;;;5119748;27;20038;-72
2022/01/25 14:47:40;;;;;;;48.53;23.17;;;4.90;99.90;;;;;;5121758;27;20082;-75
2022/01/25 14:50:15;;;;;;;52.15;23.65;;;5.60;99.90;;;;;;5104967;28;20043;-78